Time,TemperatureF,DewpointF,PressureIn,WindDirection,WindDirectionDegrees,WindSpeedMPH,WindSpeedGustMPH,Humidity,HourlyPrecipIn,Conditions,Clouds,dailyrainin,SolarRadiationWatts/m^2,SoftwareType,DateUTC
2013-07-07 00:00:00,75.0,74.0,-100.00,NNW,347,1.0,-999.0,99,-99.99,,,-99.99,0.000000,,2013-07-07 05:00:00,
2013-07-07 00:51:00,75.0,74.0,-100.00,NNW,347,1.0,-999.0,99,-99.99,,,-99.99,0.000000,,2013-07-07 05:51:00,
2013-07-07 03:00:00,73.0,73.0,-100.00,NE,48,0.0,-999.0,99,-99.99,,,-99.99,0.000000,,2013-07-07 08:00:00,
2013-07-07 03:53:00,73.0,73.0,-100.00,NE,48,0.0,-999.0,99,-99.99,,,-99.99,0.000000,,2013-07-07 08:53:00,
2013-07-07 04:00:00,73.0,73.0,-100.00,NE,46,0.0,-999.0,99,-99.99,,,-99.99,0.000000,,2013-07-07 09:00:00,
2013-07-07 05:00:00,73.0,73.0,-100.00,NNE,26,0.0,-999.0,99,-99.99,,,-99.99,0.000000,,2013-07-07 10:00:00,
2013-07-07 05:52:00,73.0,73.0,-100.00,NNE,26,0.0,-999.0,99,-99.99,,,-99.99,0.000000,,2013-07-07 10:52:00,
2013-07-07 06:00:00,74.0,74.0,-100.00,NE,49,0.0,-999.0,100,-99.99,,,-99.99,0.090000,,2013-07-07 11:00:00,
2013-07-07 07:00:00,75.0,75.0,-100.00,North,0,0.0,-999.0,100,-99.99,,,-99.99,23.469999,,2013-07-07 12:00:00,
2013-07-07 08:00:00,76.0,76.0,-100.00,NE,55,1.0,-999.0,100,-99.99,,,-99.99,85.500000,,2013-07-07 13:00:00,
2013-07-07 09:00:00,79.0,77.0,-100.00,ENE,66,1.0,-999.0,93,-99.99,,,-99.99,310.839996,,2013-07-07 14:00:00,
2013-07-07 10:00:00,75.0,74.0,-100.00,NE,52,2.0,-999.0,98,-99.99,,,-99.99,55.520000,,2013-07-07 15:00:00,
2013-07-07 10:52:00,75.0,74.0,-100.00,NE,52,2.0,-999.0,98,-99.99,,,-99.99,55.520000,,2013-07-07 15:52:00,
2013-07-07 11:00:00,76.0,75.0,-100.00,ENE,70,2.0,-999.0,98,-99.99,,,-99.99,94.239998,,2013-07-07 16:00:00,
2013-07-07 12:00:00,76.0,75.0,-100.00,NE,53,0.0,-999.0,98,-99.99,,,-99.99,95.379997,,2013-07-07 17:00:00,
2013-07-07 13:00:00,77.0,76.0,-100.00,NNE,32,1.0,-999.0,99,-99.99,,,-99.99,69.529999,,2013-07-07 18:00:00,
2013-07-07 13:53:00,77.0,76.0,-100.00,NNE,32,1.0,-999.0,99,-99.99,,,-99.99,69.529999,,2013-07-07 18:53:00,
2013-07-07 14:00:00,79.0,78.0,-100.00,ENE,76,1.0,-999.0,97,-99.99,,,-99.99,271.510010,,2013-07-07 19:00:00,
2013-07-07 15:00:00,82.0,76.0,-100.00,ESE,108,2.0,-999.0,82,-99.99,,,-99.99,302.290009,,2013-07-07 20:00:00,
2013-07-07 15:53:00,82.0,76.0,-100.00,ESE,108,2.0,-999.0,82,-99.99,,,-99.99,302.290009,,2013-07-07 20:53:00,
2013-07-07 16:00:00,81.0,76.0,-100.00,SSE,151,3.0,-999.0,85,-99.99,,,-99.99,176.419998,,2013-07-07 21:00:00,
2013-07-07 16:53:00,81.0,76.0,-100.00,SSE,151,3.0,-999.0,85,-99.99,,,-99.99,176.419998,,2013-07-07 21:53:00,
2013-07-07 17:00:00,80.0,77.0,-100.00,SE,139,2.0,-999.0,90,-99.99,,,-99.99,118.370003,,2013-07-07 22:00:00,
2013-07-07 18:00:00,79.0,78.0,-100.00,SE,137,1.0,-999.0,95,-99.99,,,-99.99,61.790001,,2013-07-07 23:00:00,
2013-07-07 18:53:00,79.0,78.0,-100.00,SE,137,1.0,-999.0,95,-99.99,,,-99.99,61.790001,,2013-07-07 23:53:00,
2013-07-07 19:00:00,79.0,78.0,-100.00,SE,125,0.0,-999.0,97,-99.99,,,-99.99,29.830000,,2013-07-08 00:00:00,
2013-07-07 19:53:00,79.0,78.0,-100.00,SE,125,0.0,-999.0,97,-99.99,,,-99.99,29.830000,,2013-07-08 00:53:00,
2013-07-07 20:00:00,78.0,78.0,-100.00,ENE,61,0.0,-999.0,99,-99.99,,,-99.99,4.680000,,2013-07-08 01:00:00,
2013-07-07 21:00:00,75.0,74.0,-100.00,SSE,161,1.0,-999.0,97,-99.99,,,-99.99,0.020000,,2013-07-08 02:00:00,
2013-07-07 22:00:00,74.0,73.0,-100.00,SSW,207,2.0,-999.0,98,-99.99,,,-99.99,0.000000,,2013-07-08 03:00:00,
2013-07-07 23:00:00,73.0,72.0,-100.00,South,187,4.0,-999.0,98,-99.99,,,-99.99,0.000000,,2013-07-08 04:00:00,